Time;durP1;ratioP1;P1;durP2;ratioP2;P2;SDS_P1;SDS_P2;PMS_P1;PMS_P2;Temp;Humidity;BMP_temperature;BMP_pressure;BME280_temperature;BME280_humidity;BME280_pressure;Samples;Min_cycle;Max_cycle;Signal;HPM_P1;HPM_P2
2023/03/31 00:02:23;;;;;;;7.65;1.58;;;13.30;99.90;;;;;;4920288;29;20040;-84
2023/03/31 00:04:51;;;;;;;14.18;2.10;;;13.30;99.90;;;;;;4919653;29;20091;-72
2023/03/31 00:07:20;;;;;;;10.88;1.90;;;13.30;99.90;;;;;;4921527;29;20034;-71
2023/03/31 00:09:53;;;;;;;7.13;2.08;;;13.30;99.90;;;;;;4917906;29;20039;-83
2023/03/31 00:12:21;;;;;;;8.23;1.73;;;13.30;99.90;;;;;;4918585;29;20031;-82
2023/03/31 00:14:46;;;;;;;12.43;2.90;;;13.30;99.90;;;;;;4917107;29;20090;-75
2023/03/31 00:17:13;;;;;;;8.00;2.03;;;13.30;99.90;;;;;;4918307;29;20213;-78
2023/03/31 00:19:41;;;;;;;7.18;2.00;;;13.30;99.90;;;;;;4918907;29;20521;-72
2023/03/31 00:22:08;;;;;;;9.02;2.17;;;13.30;99.90;;;;;;4918446;29;20099;-72
2023/03/31 00:24:34;;;;;;;9.65;2.03;;;13.20;99.90;;;;;;4921474;29;20035;-74
2023/03/31 00:27:02;;;;;;;11.82;2.30;;;13.20;99.90;;;;;;4922093;29;20030;-83
2023/03/31 00:29:28;;;;;;;6.93;2.00;;;13.10;99.90;;;;;;4916417;29;20051;-80
2023/03/31 00:31:55;;;;;;;8.52;2.10;;;13.10;99.90;;;;;;4922668;29;20052;-72
2023/03/31 00:34:21;;;;;;;8.13;2.40;;;13.20;99.90;;;;;;4917421;29;20082;-75
2023/03/31 00:36:47;;;;;;;9.07;2.20;;;13.00;99.90;;;;;;4915075;29;20039;-75
2023/03/31 00:39:16;;;;;;;14.77;2.47;;;13.00;99.90;;;;;;4921355;29;20597;-71
2023/03/31 00:41:43;;;;;;;5.35;1.98;;;13.10;99.90;;;;;;4919632;29;20047;-78
2023/03/31 00:44:28;;;;;;;9.85;2.55;;;13.10;99.90;;;;;;4923292;29;20134;-72
2023/03/31 00:47:06;;;;;;;10.88;2.00;;;13.10;99.90;;;;;;4921836;29;20028;-72
2023/03/31 00:49:34;;;;;;;11.95;2.75;;;13.10;99.90;;;;;;4920740;29;20473;-71
2023/03/31 00:52:22;;;;;;;8.00;2.47;;;13.00;99.90;;;;;;4918622;29;20388;-72
2023/03/31 00:54:52;;;;;;;10.10;2.53;;;13.00;99.90;;;;;;4919434;29;20035;-72
2023/03/31 00:57:19;;;;;;;11.02;2.40;;;13.00;99.90;;;;;;4920182;29;21648;-71
2023/03/31 00:59:49;;;;;;;7.75;2.00;;;13.00;99.90;;;;;;4917122;29;20023;-78
2023/03/31 01:02:16;;;;;;;7.25;2.38;;;13.00;99.90;;;;;;4923577;29;20135;-72
2023/03/31 01:04:53;;;;;;;8.32;2.40;;;13.00;99.90;;;;;;4918287;29;20111;-71
2023/03/31 01:07:34;;;;;;;6.63;1.95;;;12.90;99.90;;;;;;4917511;29;20083;-71
2023/03/31 01:10:02;;;;;;;9.18;2.50;;;12.90;99.90;;;;;;4919354;29;20016;-71
2023/03/31 01:12:29;;;;;;;13.13;3.35;;;12.90;99.90;;;;;;4919100;29;20027;-71
2023/03/31 01:14:55;;;;;;;12.93;2.40;;;12.90;99.90;;;;;;4918487;29;20016;-71
2023/03/31 01:17:21;;;;;;;18.73;3.25;;;12.90;99.90;;;;;;4915550;29;20107;-71
2023/03/31 01:20:10;;;;;;;16.17;3.67;;;12.80;99.90;;;;;;4916935;29;20014;-71
2023/03/31 01:23:07;;;;;;;12.95;2.55;;;12.70;99.90;;;;;;4917974;29;20043;-72
2023/03/31 01:25:53;;;;;;;11.65;2.78;;;12.70;99.90;;;;;;4920144;29;20111;-71
2023/03/31 01:28:28;;;;;;;17.58;2.88;;;12.80;99.90;;;;;;4924967;28;20068;-72
2023/03/31 01:31:06;;;;;;;16.30;3.00;;;12.80;99.90;;;;;;4921446;29;20030;-72
2023/03/31 01:33:50;;;;;;;21.88;3.15;;;12.80;99.90;;;;;;4915068;29;20043;-79
2023/03/31 01:36:45;;;;;;;20.88;3.30;;;12.90;99.90;;;;;;4913880;29;20055;-71
2023/03/31 01:39:22;;;;;;;16.20;3.53;;;12.90;99.90;;;;;;4914888;29;20482;-70
2023/03/31 01:42:15;;;;;;;14.18;2.53;;;12.90;99.90;;;;;;4916888;29;20047;-70
2023/03/31 01:45:03;;;;;;;18.50;3.28;;;12.90;99.90;;;;;;4916480;29;20036;-72
2023/03/31 01:48:05;;;;;;;14.13;2.92;;;12.90;99.90;;;;;;4917452;29;20483;-71
2023/03/31 01:50:35;;;;;;;17.35;3.42;;;12.80;99.90;;;;;;4919622;29;20024;-72
2023/03/31 01:53:22;;;;;;;17.40;3.20;;;12.90;99.90;;;;;;4936038;28;20401;-79
2023/03/31 01:55:57;;;;;;;16.75;3.58;;;12.90;99.90;;;;;;4917960;29;20028;-86
2023/03/31 01:58:31;;;;;;;18.67;3.78;;;12.90;99.90;;;;;;4919501;29;20028;-77
2023/03/31 02:01:05;;;;;;;20.42;3.75;;;13.00;99.90;;;;;;4925744;29;20098;-71
2023/03/31 02:03:38;;;;;;;17.27;3.55;;;13.00;99.90;;;;;;4921415;29;20086;-70
2023/03/31 02:06:11;;;;;;;18.98;3.38;;;12.90;99.90;;;;;;4920525;29;20020;-72
2023/03/31 02:08:45;;;;;;;17.70;3.63;;;12.90;99.90;;;;;;4924947;29;20034;-69
2023/03/31 02:11:12;;;;;;;19.80;3.40;;;13.00;99.90;;;;;;4922607;29;20056;-71
2023/03/31 02:13:40;;;;;;;23.23;4.40;;;13.00;99.90;;;;;;4920681;29;20381;-70
2023/03/31 02:16:11;;;;;;;17.83;3.90;;;13.00;99.90;;;;;;4919270;29;20031;-70
2023/03/31 02:18:40;;;;;;;12.73;3.05;;;13.00;99.90;;;;;;4923904;29;20032;-70
2023/03/31 02:21:07;;;;;;;18.30;3.70;;;13.00;99.90;;;;;;4920987;29;20091;-70
2023/03/31 02:23:36;;;;;;;18.48;3.60;;;13.10;99.90;;;;;;4920602;29;20024;-74
2023/03/31 02:26:04;;;;;;;20.85;3.53;;;13.00;99.90;;;;;;4916970;29;20426;-70
2023/03/31 02:28:30;;;;;;;20.55;4.25;;;13.00;99.90;;;;;;4921613;29;20390;-70
2023/03/31 02:31:05;;;;;;;19.00;4.18;;;13.00;99.90;;;;;;4923903;29;20027;-71
2023/03/31 02:33:31;;;;;;;19.88;4.10;;;12.90;99.90;;;;;;4919751;29;20545;-71
2023/03/31 02:35:59;;;;;;;16.77;3.67;;;13.00;99.90;;;;;;4925561;29;20028;-73
2023/03/31 02:38:26;;;;;;;14.23;3.10;;;12.90;99.90;;;;;;4917921;29;20032;-71
2023/03/31 02:40:52;;;;;;;14.48;3.15;;;13.00;99.90;;;;;;4919372;29;20035;-72
2023/03/31 02:43:19;;;;;;;14.95;3.58;;;13.00;99.90;;;;;;4921442;29;20044;-72
2023/03/31 02:45:50;;;;;;;17.45;3.80;;;13.00;99.90;;;;;;4919569;29;20434;-71
2023/03/31 02:48:26;;;;;;;19.60;3.15;;;13.00;99.90;;;;;;4919205;29;20032;-72
2023/03/31 02:51:12;;;;;;;20.23;3.67;;;13.00;99.90;;;;;;4918618;29;20032;-71
2023/03/31 02:54:06;;;;;;;18.65;3.53;;;13.00;99.90;;;;;;4925081;28;20059;-70
2023/03/31 02:56:43;;;;;;;16.13;3.35;;;13.10;99.90;;;;;;4924306;29;20081;-71
2023/03/31 02:59:29;;;;;;;14.27;3.15;;;13.10;99.90;;;;;;4937654;28;20095;-71
2023/03/31 03:02:13;;;;;;;20.33;3.35;;;13.00;99.90;;;;;;4919633;29;20063;-74
2023/03/31 03:05:01;;;;;;;19.63;3.53;;;12.90;99.90;;;;;;4919254;29;20063;-71
2023/03/31 03:07:47;;;;;;;15.30;2.58;;;12.90;99.90;;;;;;4921300;29;20024;-71
2023/03/31 03:10:23;;;;;;;11.93;2.60;;;12.70;99.90;;;;;;4917503;29;20036;-71
2023/03/31 03:13:14;;;;;;;12.27;2.90;;;12.70;99.90;;;;;;4919391;29;20083;-71
2023/03/31 03:15:47;;;;;;;11.45;2.78;;;12.70;99.90;;;;;;4919832;29;20024;-72
2023/03/31 03:18:13;;;;;;;15.55;2.72;;;12.60;99.90;;;;;;4920995;29;20446;-73
2023/03/31 03:20:41;;;;;;;12.50;2.80;;;12.70;99.90;;;;;;4920316;29;20102;-71
2023/03/31 03:23:07;;;;;;;14.23;2.42;;;12.70;99.90;;;;;;4920113;29;20506;-72
2023/03/31 03:25:34;;;;;;;11.63;2.70;;;12.60;99.90;;;;;;4921043;29;20874;-72
2023/03/31 03:28:00;;;;;;;13.15;2.58;;;12.60;99.90;;;;;;4919885;29;20079;-72
2023/03/31 03:30:25;;;;;;;12.30;2.30;;;12.60;99.90;;;;;;4918551;29;20425;-71
2023/03/31 03:32:53;;;;;;;9.50;2.05;;;12.50;99.90;;;;;;4917459;29;20087;-71
2023/03/31 03:35:19;;;;;;;7.95;2.17;;;12.40;99.90;;;;;;4920590;29;20023;-72
2023/03/31 03:37:45;;;;;;;11.73;2.15;;;12.40;99.90;;;;;;4917765;29;20032;-71
2023/03/31 03:40:11;;;;;;;14.07;2.20;;;12.40;99.90;;;;;;4921711;29;20383;-71
2023/03/31 03:42:37;;;;;;;13.27;2.05;;;12.30;99.90;;;;;;4923246;28;20045;-72
2023/03/31 03:45:03;;;;;;;10.13;2.28;;;12.30;99.90;;;;;;4919847;29;20035;-71
2023/03/31 03:47:29;;;;;;;12.82;1.92;;;12.40;99.90;;;;;;4918887;29;20032;-71
2023/03/31 03:49:55;;;;;;;10.73;2.10;;;12.40;99.90;;;;;;4918509;29;20473;-71
2023/03/31 03:52:20;;;;;;;8.77;2.10;;;12.30;99.90;;;;;;4920395;29;20094;-71
2023/03/31 03:54:46;;;;;;;10.45;1.80;;;12.30;99.90;;;;;;4919632;29;20024;-71
2023/03/31 03:57:12;;;;;;;10.98;1.95;;;12.30;99.90;;;;;;4916414;29;20095;-71
2023/03/31 03:59:37;;;;;;;7.15;2.00;;;12.30;99.90;;;;;;4922821;29;20054;-72
2023/03/31 04:02:03;;;;;;;8.68;1.88;;;12.30;99.90;;;;;;4919562;29;20405;-72
2023/03/31 04:04:29;;;;;;;10.02;2.35;;;12.30;99.90;;;;;;4922586;29;20472;-72
2023/03/31 04:06:54;;;;;;;7.28;1.60;;;12.30;99.90;;;;;;4918859;29;20105;-73
2023/03/31 04:09:20;;;;;;;11.38;2.40;;;12.30;99.90;;;;;;4922227;29;20032;-72
2023/03/31 04:11:46;;;;;;;9.02;1.88;;;12.30;99.90;;;;;;4919446;29;20098;-73
2023/03/31 04:14:11;;;;;;;8.40;1.60;;;12.40;99.90;;;;;;4919037;29;20032;-85
2023/03/31 04:16:39;;;;;;;13.88;2.47;;;12.30;99.90;;;;;;4920908;29;20051;-83
2023/03/31 04:19:10;;;;;;;7.18;1.67;;;12.30;99.90;;;;;;4924419;29;20758;-85
2023/03/31 04:21:36;;;;;;;9.18;2.20;;;12.30;99.90;;;;;;4925862;29;20087;-73
2023/03/31 04:24:05;;;;;;;7.40;2.45;;;12.30;99.90;;;;;;4924750;28;20040;-77
2023/03/31 04:26:45;;;;;;;7.70;2.60;;;12.40;99.90;;;;;;4923823;29;20052;-78
2023/03/31 04:29:12;;;;;;;6.47;1.70;;;12.30;99.90;;;;;;4917211;29;20032;-73
2023/03/31 04:31:41;;;;;;;7.90;2.00;;;12.40;99.90;;;;;;4920007;29;20553;-76
2023/03/31 04:34:12;;;;;;;8.55;1.77;;;12.40;99.90;;;;;;4921451;29;20417;-72
2023/03/31 04:36:41;;;;;;;8.70;1.52;;;12.40;99.90;;;;;;4919702;29;20020;-80
2023/03/31 04:39:11;;;;;;;6.22;1.73;;;12.40;99.90;;;;;;4918827;29;20036;-73
2023/03/31 04:41:37;;;;;;;8.68;2.03;;;12.30;99.90;;;;;;4917901;29;20032;-75
2023/03/31 04:44:03;;;;;;;7.82;1.90;;;12.30;99.90;;;;;;4923258;29;20453;-71
2023/03/31 04:46:28;;;;;;;8.18;1.65;;;12.20;99.90;;;;;;4921971;29;20031;-76
2023/03/31 04:48:54;;;;;;;6.72;1.60;;;12.20;99.90;;;;;;4926144;29;20517;-88
2023/03/31 04:51:22;;;;;;;13.88;2.22;;;12.20;99.90;;;;;;4923983;29;20420;-88
2023/03/31 04:53:49;;;;;;;9.98;1.55;;;12.30;99.90;;;;;;4922045;29;20035;-89
2023/03/31 04:56:14;;;;;;;8.07;1.83;;;12.30;99.90;;;;;;4917197;29;20084;-75
2023/03/31 04:58:40;;;;;;;5.20;1.85;;;12.20;99.90;;;;;;4922560;29;20032;-89
2023/03/31 05:01:06;;;;;;;13.40;2.10;;;12.20;99.90;;;;;;4923969;29;20090;-78
2023/03/31 05:03:32;;;;;;;10.90;1.90;;;12.20;99.90;;;;;;4921369;29;20146;-84
2023/03/31 05:05:58;;;;;;;7.53;2.15;;;12.20;99.90;;;;;;4925004;29;20090;-89
2023/03/31 05:08:26;;;;;;;10.20;1.92;;;12.20;99.90;;;;;;4923035;29;20475;-88
2023/03/31 05:10:53;;;;;;;8.13;1.98;;;12.20;99.90;;;;;;4920885;29;20036;-74
2023/03/31 05:13:24;;;;;;;8.35;2.00;;;12.20;99.90;;;;;;4920194;29;20033;-83
2023/03/31 05:15:51;;;;;;;9.55;1.88;;;12.30;99.90;;;;;;4923524;29;20548;-85
2023/03/31 05:18:17;;;;;;;5.53;1.85;;;12.30;99.90;;;;;;4922527;29;20048;-87
2023/03/31 05:20:44;;;;;;;11.25;1.90;;;12.30;99.90;;;;;;4926683;29;20393;-78
2023/03/31 05:23:15;;;;;;;14.43;2.00;;;12.30;99.90;;;;;;4926735;29;20074;-86
2023/03/31 05:25:41;;;;;;;11.40;1.98;;;12.30;99.90;;;;;;4920294;29;20047;-71
2023/03/31 05:28:08;;;;;;;9.18;2.20;;;12.30;99.90;;;;;;4923381;29;20466;-76
2023/03/31 05:30:38;;;;;;;8.13;1.98;;;12.40;99.90;;;;;;4926326;29;20028;-88
2023/03/31 05:33:04;;;;;;;7.38;2.17;;;12.30;99.90;;;;;;4923675;29;20052;-74
2023/03/31 05:35:30;;;;;;;13.30;2.50;;;12.40;99.90;;;;;;4925198;29;20459;-76
2023/03/31 05:37:55;;;;;;;9.20;2.90;;;12.30;99.90;;;;;;4922484;29;20063;-71
2023/03/31 05:40:21;;;;;;;11.13;2.58;;;12.20;99.90;;;;;;4927010;29;20036;-74
2023/03/31 05:42:47;;;;;;;10.70;2.42;;;12.30;99.90;;;;;;4922773;29;20040;-75
2023/03/31 05:45:17;;;;;;;15.13;2.95;;;12.40;99.90;;;;;;4924014;29;20023;-75
2023/03/31 05:47:43;;;;;;;8.00;1.77;;;12.30;99.90;;;;;;4942087;28;20062;-83
2023/03/31 05:50:10;;;;;;;10.38;2.65;;;12.40;99.90;;;;;;4924265;29;20080;-85
2023/03/31 05:52:36;;;;;;;12.45;2.92;;;12.40;99.90;;;;;;4929811;29;20039;-87
2023/03/31 05:55:04;;;;;;;12.38;2.50;;;12.40;99.90;;;;;;4932226;29;20047;-84
2023/03/31 05:57:30;;;;;;;9.68;2.58;;;12.30;99.90;;;;;;4926559;29;20023;-69
2023/03/31 05:59:55;;;;;;;12.15;2.30;;;12.40;99.90;;;;;;4921780;29;20090;-74
2023/03/31 06:02:21;;;;;;;11.50;2.83;;;12.40;99.90;;;;;;4926139;29;20038;-83
2023/03/31 06:04:47;;;;;;;15.32;2.45;;;12.40;99.90;;;;;;4922195;29;20036;-79
2023/03/31 06:07:13;;;;;;;10.38;2.70;;;12.40;99.90;;;;;;4922213;29;20032;-69
2023/03/31 06:09:39;;;;;;;17.75;2.75;;;12.40;99.90;;;;;;4926190;29;20135;-72
2023/03/31 06:12:07;;;;;;;16.42;3.10;;;12.40;99.90;;;;;;4924073;29;20111;-69
2023/03/31 06:14:32;;;;;;;11.75;2.58;;;12.30;99.90;;;;;;4926649;29;20035;-70
2023/03/31 06:16:58;;;;;;;11.43;2.30;;;12.30;99.90;;;;;;4925441;29;20023;-69
2023/03/31 06:19:24;;;;;;;12.40;2.80;;;12.30;99.90;;;;;;4922173;29;20389;-70
2023/03/31 06:21:49;;;;;;;21.13;3.38;;;12.20;99.90;;;;;;4924238;29;20047;-70
2023/03/31 06:24:15;;;;;;;8.57;2.65;;;12.30;99.90;;;;;;4924500;29;20051;-69
2023/03/31 06:26:41;;;;;;;11.27;2.80;;;12.20;99.90;;;;;;4925517;29;20421;-73
2023/03/31 06:29:06;;;;;;;12.10;3.22;;;12.20;99.90;;;;;;4923764;29;20051;-71
2023/03/31 06:31:32;;;;;;;12.93;2.75;;;12.30;99.90;;;;;;4926606;29;20454;-72
2023/03/31 06:33:58;;;;;;;12.57;2.80;;;12.40;99.90;;;;;;4924294;29;20508;-72
2023/03/31 06:36:23;;;;;;;8.23;2.70;;;12.40;99.90;;;;;;4924523;29;20035;-72
2023/03/31 06:38:49;;;;;;;14.27;2.83;;;12.40;99.90;;;;;;4928332;29;20497;-74
2023/03/31 06:41:17;;;;;;;10.48;2.60;;;12.40;99.90;;;;;;4936118;29;20031;-71
2023/03/31 06:43:42;;;;;;;10.93;2.50;;;12.40;99.90;;;;;;4925401;29;20024;-72
2023/03/31 06:46:08;;;;;;;16.02;2.70;;;12.50;99.90;;;;;;4929474;29;20024;-71
2023/03/31 06:48:34;;;;;;;11.55;2.78;;;12.50;99.90;;;;;;4932206;29;20531;-70
2023/03/31 06:51:02;;;;;;;11.30;2.97;;;12.50;99.90;;;;;;4922299;29;20024;-72
2023/03/31 06:53:28;;;;;;;14.32;3.28;;;12.60;99.90;;;;;;4927026;29;20055;-71
2023/03/31 06:55:55;;;;;;;12.07;3.35;;;12.60;99.90;;;;;;4921730;29;20059;-72
2023/03/31 06:58:21;;;;;;;11.65;2.85;;;12.50;99.90;;;;;;4932208;29;20019;-71
2023/03/31 07:00:46;;;;;;;12.57;3.35;;;12.50;99.90;;;;;;4928065;29;20024;-72
2023/03/31 07:03:13;;;;;;;14.80;2.50;;;12.50;99.90;;;;;;4934499;29;20374;-74
2023/03/31 07:05:39;;;;;;;14.32;2.88;;;12.60;99.90;;;;;;4934269;29;20111;-73
2023/03/31 07:08:05;;;;;;;12.80;3.20;;;12.60;99.90;;;;;;4932323;29;20152;-72
2023/03/31 07:10:31;;;;;;;11.88;2.80;;;12.70;99.90;;;;;;4922382;29;20036;-73
2023/03/31 07:12:57;;;;;;;12.82;2.83;;;12.60;99.90;;;;;;4932442;29;20512;-72
2023/03/31 07:15:24;;;;;;;12.10;3.55;;;12.60;99.90;;;;;;4929966;29;20012;-72
2023/03/31 07:17:52;;;;;;;12.40;2.70;;;12.60;99.90;;;;;;4931499;29;20039;-72
2023/03/31 07:20:19;;;;;;;11.13;2.60;;;12.60;99.90;;;;;;4933509;29;20020;-71
2023/03/31 07:22:47;;;;;;;12.38;3.38;;;12.60;99.90;;;;;;4926097;29;20648;-72
2023/03/31 07:25:16;;;;;;;12.20;2.78;;;12.50;99.90;;;;;;4928861;29;20027;-72
2023/03/31 07:27:42;;;;;;;14.10;3.42;;;12.50;99.90;;;;;;4935252;29;20071;-72
2023/03/31 07:30:12;;;;;;;13.73;3.13;;;12.60;99.90;;;;;;4922950;29;20024;-72
2023/03/31 07:32:39;;;;;;;13.95;4.18;;;12.50;99.90;;;;;;4935021;28;20370;-72
2023/03/31 07:35:06;;;;;;;14.48;3.83;;;12.60;99.90;;;;;;4927354;29;20024;-72
2023/03/31 07:37:38;;;;;;;20.35;3.33;;;12.60;99.90;;;;;;4922550;29;20031;-72
2023/03/31 07:40:05;;;;;;;12.83;2.97;;;12.70;99.90;;;;;;4932704;29;20035;-71
2023/03/31 07:42:32;;;;;;;17.40;3.28;;;12.70;99.90;;;;;;4925872;28;20551;-71
2023/03/31 07:44:57;;;;;;;13.55;2.88;;;12.80;99.90;;;;;;4926964;29;20144;-70
2023/03/31 07:47:24;;;;;;;15.52;3.08;;;12.80;99.90;;;;;;4933885;29;20107;-71
2023/03/31 07:49:49;;;;;;;14.70;3.10;;;12.80;99.90;;;;;;4922377;29;20028;-71
2023/03/31 07:52:17;;;;;;;12.73;3.30;;;12.90;99.90;;;;;;4930229;29;20560;-72
2023/03/31 07:54:43;;;;;;;17.52;3.63;;;12.90;99.90;;;;;;4928830;29;20063;-72
2023/03/31 07:57:08;;;;;;;14.02;3.15;;;13.00;99.90;;;;;;4933357;29;20128;-72
2023/03/31 07:59:34;;;;;;;14.98;3.20;;;13.10;99.90;;;;;;4931384;28;20469;-72
2023/03/31 08:02:00;;;;;;;11.68;3.35;;;13.20;99.90;;;;;;4926430;29;20036;-73
2023/03/31 08:04:26;;;;;;;16.30;3.47;;;13.20;99.90;;;;;;4921785;29;20046;-72
2023/03/31 08:06:51;;;;;;;16.77;3.65;;;13.30;99.90;;;;;;4927617;29;20103;-73
2023/03/31 08:09:18;;;;;;;15.00;3.60;;;13.30;99.90;;;;;;4933588;29;20130;-72
2023/03/31 08:11:44;;;;;;;15.68;3.85;;;13.40;99.90;;;;;;4924041;29;20099;-73
2023/03/31 08:14:10;;;;;;;19.83;4.43;;;13.70;99.90;;;;;;4926140;29;20389;-73
2023/03/31 08:16:35;;;;;;;17.20;3.33;;;13.70;99.90;;;;;;4933971;29;20062;-73
2023/03/31 08:19:01;;;;;;;12.82;3.70;;;13.90;99.90;;;;;;4930850;29;20032;-72
2023/03/31 08:21:28;;;;;;;18.00;3.42;;;14.00;99.90;;;;;;4923237;29;20389;-73
2023/03/31 08:23:55;;;;;;;20.58;4.65;;;14.10;99.90;;;;;;4928278;29;20031;-72
2023/03/31 08:26:23;;;;;;;19.95;4.68;;;14.20;99.90;;;;;;4928318;29;20079;-73
2023/03/31 08:28:49;;;;;;;15.50;3.03;;;14.30;99.90;;;;;;4924205;29;20023;-73
2023/03/31 08:31:17;;;;;;;14.45;3.33;;;14.30;99.90;;;;;;4929595;29;20031;-73
2023/03/31 08:33:43;;;;;;;18.38;3.88;;;14.30;99.90;;;;;;4926076;29;20036;-73
2023/03/31 08:36:09;;;;;;;16.70;3.85;;;14.20;99.90;;;;;;4929408;29;20027;-73
2023/03/31 08:38:40;;;;;;;23.13;4.07;;;14.20;99.90;;;;;;4927754;29;20075;-73
2023/03/31 08:41:18;;;;;;;14.95;3.20;;;14.20;99.90;;;;;;4931769;29;20429;-73
2023/03/31 08:43:47;;;;;;;14.57;4.03;;;14.20;99.90;;;;;;4936855;29;20058;-74
2023/03/31 08:46:16;;;;;;;11.98;3.28;;;14.20;99.90;;;;;;4933695;29;20055;-72
2023/03/31 08:48:48;;;;;;;19.15;4.10;;;14.20;99.90;;;;;;4925035;29;20036;-73
2023/03/31 08:51:42;;;;;;;14.75;4.15;;;14.20;99.90;;;;;;4933677;29;20036;-72
2023/03/31 08:54:20;;;;;;;16.40;3.90;;;14.20;99.90;;;;;;4930048;29;20535;-72
2023/03/31 08:56:48;;;;;;;22.20;3.60;;;14.30;99.90;;;;;;4929918;29;20239;-71
2023/03/31 08:59:23;;;;;;;19.90;4.28;;;14.30;99.90;;;;;;4931916;29;20477;-76
2023/03/31 09:01:59;;;;;;;18.90;3.33;;;14.10;99.90;;;;;;4933134;29;20043;-71
2023/03/31 09:04:31;;;;;;;18.73;4.00;;;14.00;99.90;;;;;;4924294;29;20413;-73
2023/03/31 09:07:15;;;;;;;14.57;3.67;;;14.00;99.90;;;;;;4932581;29;20440;-72
2023/03/31 09:10:09;;;;;;;15.65;4.10;;;14.10;99.90;;;;;;4925794;29;20375;-72
2023/03/31 09:12:54;;;;;;;23.83;4.88;;;14.10;99.90;;;;;;4944225;28;20115;-72
2023/03/31 09:15:28;;;;;;;14.85;3.92;;;14.10;99.90;;;;;;4925416;29;20043;-72
2023/03/31 09:17:59;;;;;;;17.45;4.05;;;14.20;99.90;;;;;;4931360;29;20032;-72
2023/03/31 09:20:33;;;;;;;18.35;3.92;;;14.30;99.90;;;;;;4932150;29;20024;-72
2023/03/31 09:23:13;;;;;;;21.63;4.32;;;14.30;99.90;;;;;;4928706;29;20050;-73
2023/03/31 09:25:41;;;;;;;22.20;4.57;;;14.30;99.90;;;;;;4932510;29;20450;-73
2023/03/31 09:28:20;;;;;;;22.50;4.03;;;14.30;99.90;;;;;;4931941;29;20040;-74
2023/03/31 09:30:51;;;;;;;17.25;4.00;;;14.30;99.90;;;;;;4931697;29;20026;-73
2023/03/31 09:33:30;;;;;;;17.30;4.90;;;14.40;99.90;;;;;;4928831;29;20044;-73
2023/03/31 09:35:57;;;;;;;18.27;4.30;;;14.30;99.90;;;;;;4932723;29;20027;-72
2023/03/31 09:38:28;;;;;;;19.42;4.40;;;14.30;99.90;;;;;;4925079;29;20028;-72
2023/03/31 09:40:55;;;;;;;17.20;4.20;;;14.40;99.90;;;;;;4928182;29;20110;-72
2023/03/31 09:43:25;;;;;;;16.60;3.88;;;14.30;99.90;;;;;;4935969;29;20091;-72
2023/03/31 09:45:51;;;;;;;14.95;3.95;;;14.40;99.90;;;;;;4935073;29;20408;-72
2023/03/31 09:48:25;;;;;;;14.43;3.55;;;14.30;99.90;;;;;;4927540;29;20056;-72
2023/03/31 09:51:05;;;;;;;10.75;3.22;;;14.30;99.90;;;;;;4933442;29;20110;-72
2023/03/31 09:53:46;;;;;;;11.48;3.38;;;14.40;99.90;;;;;;4925659;29;20106;-73
2023/03/31 09:56:12;;;;;;;13.02;2.92;;;14.50;99.90;;;;;;4933955;29;20078;-72
2023/03/31 09:58:43;;;;;;;13.40;3.08;;;14.60;99.90;;;;;;4926761;29;20420;-73
2023/03/31 10:01:11;;;;;;;11.45;3.20;;;14.70;99.90;;;;;;4936232;29;20032;-73
2023/03/31 10:03:47;;;;;;;10.38;2.22;;;14.90;99.90;;;;;;4929106;29;20069;-73
2023/03/31 10:06:14;;;;;;;10.90;3.63;;;14.90;99.90;;;;;;4934092;29;20035;-73
2023/03/31 10:08:46;;;;;;;15.32;2.83;;;15.00;99.90;;;;;;4928849;29;20098;-73
2023/03/31 10:11:12;;;;;;;7.85;1.95;;;14.90;99.90;;;;;;4935436;29;20039;-73
2023/03/31 10:14:05;;;;;;;8.13;2.08;;;14.90;99.90;;;;;;4926019;29;20023;-74
2023/03/31 10:16:45;;;;;;;11.05;2.47;;;14.90;99.90;;;;;;4930986;29;20126;-73
2023/03/31 10:19:22;;;;;;;11.52;2.63;;;15.10;99.90;;;;;;4925111;29;20525;-73
2023/03/31 10:21:56;;;;;;;8.20;2.03;;;15.10;99.90;;;;;;4925136;29;20425;-75
2023/03/31 10:24:23;;;;;;;16.00;3.22;;;15.20;99.90;;;;;;4929036;29;20036;-74
2023/03/31 10:26:52;;;;;;;10.48;2.50;;;15.30;99.90;;;;;;4932661;28;20176;-74
2023/03/31 10:29:33;;;;;;;9.95;2.47;;;15.30;99.90;;;;;;4930261;29;20481;-73
2023/03/31 10:32:11;;;;;;;9.48;3.10;;;15.00;99.90;;;;;;4929544;29;20527;-73
2023/03/31 10:34:41;;;;;;;14.40;3.17;;;15.00;99.90;;;;;;4929805;29;20151;-76
2023/03/31 10:37:11;;;;;;;10.25;2.45;;;15.00;99.90;;;;;;4928268;28;20034;-74
2023/03/31 10:39:38;;;;;;;10.65;3.10;;;15.10;99.90;;;;;;4928383;29;20342;-74
2023/03/31 10:42:03;;;;;;;7.72;2.47;;;15.20;99.90;;;;;;4933379;29;20051;-74
2023/03/31 10:44:30;;;;;;;8.77;2.42;;;15.20;99.90;;;;;;4929755;29;20039;-73
2023/03/31 10:47:11;;;;;;;12.18;2.65;;;15.30;99.90;;;;;;4927357;29;20111;-74
2023/03/31 10:49:39;;;;;;;13.80;3.00;;;15.20;99.90;;;;;;4923939;29;20055;-73
2023/03/31 10:52:16;;;;;;;10.23;2.70;;;15.30;99.90;;;;;;4928858;29;20222;-72
2023/03/31 10:55:11;;;;;;;14.43;3.55;;;15.30;99.90;;;;;;4928981;29;20083;-73
2023/03/31 10:57:46;;;;;;;13.93;2.90;;;15.10;99.90;;;;;;4923868;29;20043;-73
2023/03/31 11:00:30;;;;;;;12.43;3.47;;;15.20;99.90;;;;;;4927999;29;20038;-72
2023/03/31 11:03:37;;;;;;;14.85;3.67;;;15.20;99.90;;;;;;4931501;29;20523;-72
2023/03/31 11:06:28;;;;;;;15.20;3.47;;;15.20;99.90;;;;;;4923418;29;20034;-74
2023/03/31 11:09:20;;;;;;;16.98;3.05;;;15.30;99.90;;;;;;4930157;29;20035;-73
2023/03/31 11:11:57;;;;;;;16.80;3.10;;;15.20;99.90;;;;;;4929534;29;20404;-73
2023/03/31 11:14:44;;;;;;;19.75;3.97;;;15.20;99.90;;;;;;4925287;29;20288;-72
2023/03/31 11:17:29;;;;;;;16.92;3.00;;;15.10;99.90;;;;;;4928859;29;20107;-71
2023/03/31 11:20:06;;;;;;;13.02;3.58;;;15.20;99.90;;;;;;4934295;29;20432;-71
2023/03/31 11:22:48;;;;;;;16.90;4.18;;;15.10;99.90;;;;;;4926540;29;20036;-72
2023/03/31 11:25:25;;;;;;;13.43;3.33;;;15.10;99.90;;;;;;4926718;29;20024;-73
2023/03/31 11:28:16;;;;;;;17.98;3.15;;;15.20;99.90;;;;;;4922189;29;20388;-72
2023/03/31 11:30:53;;;;;;;17.33;3.28;;;15.20;99.90;;;;;;4924674;29;20551;-72
2023/03/31 11:33:28;;;;;;;17.33;3.22;;;15.20;99.90;;;;;;4926424;29;20020;-72
2023/03/31 11:36:35;;;;;;;14.35;3.35;;;15.20;99.90;;;;;;4934123;29;20034;-73
2023/03/31 11:39:10;;;;;;;15.43;2.97;;;15.10;99.90;;;;;;4923806;29;20059;-74
2023/03/31 11:41:43;;;;;;;19.33;3.22;;;15.00;99.90;;;;;;4924850;29;20432;-73
2023/03/31 11:44:11;;;;;;;17.55;3.58;;;15.10;99.90;;;;;;4927653;29;20072;-73
2023/03/31 11:46:53;;;;;;;19.73;3.58;;;15.10;99.90;;;;;;4925443;29;20519;-74
2023/03/31 11:49:29;;;;;;;17.73;3.90;;;15.10;99.90;;;;;;4937205;28;20462;-73
2023/03/31 11:52:13;;;;;;;15.80;3.47;;;15.10;99.90;;;;;;4925582;29;20028;-73
2023/03/31 11:54:54;;;;;;;13.15;3.25;;;15.30;99.90;;;;;;4923670;29;20028;-72
2023/03/31 11:57:29;;;;;;;13.90;2.95;;;15.30;99.90;;;;;;4925958;29;20032;-72
2023/03/31 12:00:22;;;;;;;11.95;3.00;;;15.20;99.90;;;;;;4930822;29;20382;-72
2023/03/31 12:02:52;;;;;;;14.30;3.55;;;15.10;99.90;;;;;;4920844;29;20056;-72
2023/03/31 12:05:21;;;;;;;15.50;2.90;;;15.20;99.90;;;;;;4929649;29;20055;-72
2023/03/31 12:08:36;;;;;;;12.57;3.55;;;15.30;99.90;;;;;;4932875;29;20488;-72
2023/03/31 12:11:08;;;;;;;17.23;3.17;;;15.30;99.90;;;;;;4884397;29;20449;-72
2023/03/31 12:13:50;;;;;;;13.18;3.08;;;15.30;99.90;;;;;;4929124;29;20020;-74
2023/03/31 12:16:28;;;;;;;19.73;4.13;;;15.10;99.90;;;;;;4925561;29;20031;-72
2023/03/31 12:19:15;;;;;;;19.85;3.75;;;15.10;99.90;;;;;;4929640;29;20122;-74
2023/03/31 12:21:47;;;;;;;13.95;3.45;;;15.10;99.90;;;;;;4924050;29;20028;-70
2023/03/31 12:24:13;;;;;;;11.05;2.90;;;15.00;99.90;;;;;;4927723;28;20063;-72
2023/03/31 12:27:20;;;;;;;11.45;3.15;;;15.00;99.90;;;;;;4930251;29;20058;-72
2023/03/31 12:30:14;;;;;;;12.93;3.40;;;15.00;99.90;;;;;;4932350;29;20489;-71
2023/03/31 12:32:54;;;;;;;11.95;3.17;;;15.30;99.90;;;;;;4923933;29;20055;-71
2023/03/31 12:35:44;;;;;;;12.45;2.90;;;15.40;99.90;;;;;;4928634;29;20094;-73
2023/03/31 12:38:49;;;;;;;12.93;2.85;;;15.50;99.90;;;;;;4920159;29;20495;-71
2023/03/31 12:41:21;;;;;;;11.13;3.05;;;15.70;99.90;;;;;;4928360;29;20039;-72
2023/03/31 12:44:04;;;;;;;9.95;2.90;;;15.70;99.90;;;;;;4925788;29;20047;-71
2023/03/31 12:46:49;;;;;;;13.52;2.50;;;15.80;99.90;;;;;;4926701;29;20151;-71
2023/03/31 12:49:49;;;;;;;7.90;2.13;;;16.00;99.90;;;;;;4921606;29;20026;-73
2023/03/31 12:52:40;;;;;;;7.97;2.20;;;15.80;99.90;;;;;;4931575;29;20031;-72
2023/03/31 12:55:36;;;;;;;9.60;2.33;;;15.70;99.90;;;;;;4922612;29;20034;-73
2023/03/31 12:58:28;;;;;;;11.43;2.33;;;15.60;99.90;;;;;;4928451;29;20062;-72
2023/03/31 13:01:09;;;;;;;13.47;2.37;;;15.50;99.90;;;;;;4920173;29;20040;-78
2023/03/31 13:03:41;;;;;;;7.40;2.20;;;15.30;99.90;;;;;;4933094;29;20063;-71
2023/03/31 13:06:10;;;;;;;9.48;2.22;;;15.30;99.90;;;;;;4928787;29;20023;-71